Time;durP1;ratioP1;P1;durP2;ratioP2;P2;SDS_P1;SDS_P2;PMS_P1;PMS_P2;Temp;Humidity;BMP_temperature;BMP_pressure;BME280_temperature;BME280_humidity;BME280_pressure;Samples;Min_cycle;Max_cycle;Signal;HPM_P1;HPM_P2
2022/11/16 00:00:28;;;;;;;6.85;3.80;;;11.70;81.30;;;;;;5047718;28;20045;-77
2022/11/16 00:02:55;;;;;;;6.88;4.00;;;11.70;81.50;;;;;;5051015;28;20053;-77
2022/11/16 00:05:22;;;;;;;7.45;3.92;;;11.70;81.80;;;;;;5040324;28;20045;-77
2022/11/16 00:07:49;;;;;;;7.83;4.30;;;11.70;81.90;;;;;;5053062;28;20040;-77
2022/11/16 00:10:17;;;;;;;7.43;4.45;;;11.70;82.00;;;;;;5070828;28;20252;-77
2022/11/16 00:12:44;;;;;;;7.68;4.22;;;11.70;82.10;;;;;;5052840;28;20167;-77
2022/11/16 00:15:11;;;;;;;7.07;4.18;;;11.70;82.20;;;;;;5052918;28;20061;-77
2022/11/16 00:17:39;;;;;;;8.50;4.50;;;11.70;82.40;;;;;;5050993;28;20059;-76
2022/11/16 00:20:10;;;;;;;5.97;4.03;;;11.70;82.40;;;;;;5070216;28;20087;-77
2022/11/16 00:22:37;;;;;;;7.00;4.40;;;11.70;82.30;;;;;;5070435;28;20252;-77
2022/11/16 00:25:05;;;;;;;7.38;4.63;;;11.70;82.60;;;;;;5070786;28;20053;-77
2022/11/16 00:27:32;;;;;;;9.20;4.72;;;11.70;82.80;;;;;;5018354;28;20132;-77
2022/11/16 00:29:59;;;;;;;7.53;4.60;;;11.70;82.80;;;;;;5052328;28;20147;-77
2022/11/16 00:32:27;;;;;;;7.43;4.70;;;11.70;82.80;;;;;;5036124;28;20104;-77
2022/11/16 00:34:55;;;;;;;8.88;4.63;;;11.70;82.80;;;;;;5036197;28;20276;-77
2022/11/16 00:37:22;;;;;;;7.72;4.70;;;11.70;83.00;;;;;;5051445;28;20053;-77
2022/11/16 00:39:49;;;;;;;7.75;4.90;;;11.70;83.00;;;;;;5036072;28;20049;-77
2022/11/16 00:42:16;;;;;;;9.07;4.75;;;11.70;83.00;;;;;;5034869;28;20507;-77
2022/11/16 00:44:43;;;;;;;8.87;5.13;;;11.70;83.10;;;;;;5036011;28;20982;-77
2022/11/16 00:47:10;;;;;;;8.35;4.95;;;11.70;83.20;;;;;;5052182;28;20384;-77
2022/11/16 00:49:38;;;;;;;8.60;4.85;;;11.70;83.10;;;;;;5035493;28;20138;-77
2022/11/16 00:52:06;;;;;;;7.38;4.80;;;11.70;83.30;;;;;;5069414;28;20104;-77
2022/11/16 00:54:33;;;;;;;7.10;4.70;;;11.70;83.20;;;;;;5067429;28;20116;-77
2022/11/16 00:57:00;;;;;;;7.60;5.00;;;11.70;83.10;;;;;;5035892;28;20533;-77
2022/11/16 00:59:28;;;;;;;8.45;4.72;;;11.70;83.10;;;;;;5035847;28;20279;-77
2022/11/16 01:01:58;;;;;;;7.65;4.60;;;11.70;83.20;;;;;;5035699;28;20123;-76
2022/11/16 01:04:25;;;;;;;8.35;4.90;;;11.70;83.20;;;;;;5024755;28;20061;-77
2022/11/16 01:06:52;;;;;;;8.80;5.15;;;11.70;83.30;;;;;;5032523;28;20136;-76
2022/11/16 01:09:20;;;;;;;8.10;5.00;;;11.70;83.30;;;;;;5044265;28;20143;-77
2022/11/16 01:14:32;;;;;;;8.32;5.13;;;11.70;83.20;;;;;;5034684;28;20114;-77
2022/11/16 01:17:00;;;;;;;9.00;5.38;;;11.70;83.40;;;;;;5035257;28;20600;-77
2022/11/16 01:19:27;;;;;;;9.10;5.30;;;11.70;83.50;;;;;;5051980;28;20175;-77
2022/11/16 01:21:54;;;;;;;9.03;5.23;;;11.70;83.60;;;;;;5035221;28;20053;-77
2022/11/16 01:24:22;;;;;;;10.23;5.65;;;11.70;83.70;;;;;;5035276;28;20442;-77
2022/11/16 01:26:49;;;;;;;12.13;6.88;;;11.70;83.70;;;;;;5035382;28;20131;-77
2022/11/16 01:29:17;;;;;;;12.40;7.60;;;11.70;83.80;;;;;;5029823;28;20132;-77
2022/11/16 01:31:49;;;;;;;12.77;7.38;;;11.70;83.70;;;;;;5015158;28;20082;-77
2022/11/16 01:34:17;;;;;;;13.67;8.43;;;11.70;83.80;;;;;;5020454;28;20049;-77
2022/11/16 01:36:45;;;;;;;17.00;9.55;;;11.70;83.90;;;;;;5039110;28;20294;-76
2022/11/16 01:39:15;;;;;;;15.25;9.65;;;11.80;84.00;;;;;;5033016;28;20049;-77
2022/11/16 01:41:54;;;;;;;16.20;10.50;;;11.80;84.20;;;;;;5034922;28;20052;-77
2022/11/16 01:44:55;;;;;;;18.15;11.45;;;11.70;84.30;;;;;;5035115;28;20116;-77
2022/11/16 01:47:22;;;;;;;18.40;11.17;;;11.70;84.40;;;;;;5050207;28;20049;-77
2022/11/16 01:49:54;;;;;;;18.60;11.57;;;11.70;84.30;;;;;;5034571;28;20267;-77
2022/11/16 01:52:32;;;;;;;21.63;11.82;;;11.70;84.50;;;;;;5050599;28;20898;-77
2022/11/16 01:55:00;;;;;;;19.98;11.73;;;11.70;84.50;;;;;;5069278;28;20059;-77
2022/11/16 01:57:39;;;;;;;15.82;10.77;;;11.70;84.50;;;;;;5034720;28;20060;-77
2022/11/16 02:00:11;;;;;;;19.30;11.93;;;11.70;84.60;;;;;;5051148;28;20533;-77
2022/11/16 02:02:41;;;;;;;20.38;12.43;;;11.70;84.70;;;;;;5052028;28;20756;-77
2022/11/16 02:05:21;;;;;;;18.35;11.85;;;11.70;84.70;;;;;;5054008;28;20055;-76
2022/11/16 02:11:26;;;;;;;16.88;10.27;;;11.70;84.90;;;;;;5051062;28;20081;-77
2022/11/16 02:14:05;;;;;;;15.90;8.90;;;11.70;85.00;;;;;;5054940;28;20484;-76
2022/11/16 02:16:45;;;;;;;13.70;7.03;;;11.70;85.00;;;;;;5038095;28;20283;-76
2022/11/16 02:19:37;;;;;;;10.98;6.55;;;11.70;85.00;;;;;;5038096;28;20045;-76
2022/11/16 02:22:12;;;;;;;11.73;6.32;;;11.80;85.00;;;;;;5054426;28;20049;-77
2022/11/16 02:24:56;;;;;;;10.35;5.60;;;11.70;85.10;;;;;;5051249;28;20075;-76
2022/11/16 02:27:42;;;;;;;12.33;5.83;;;11.70;85.20;;;;;;5036877;28;20864;-76
2022/11/16 02:30:11;;;;;;;11.57;6.03;;;11.80;85.20;;;;;;5016642;28;21077;-76
2022/11/16 02:32:48;;;;;;;15.25;7.15;;;11.80;85.30;;;;;;5025238;28;20049;-76
2022/11/16 02:35:21;;;;;;;12.90;7.07;;;11.80;85.30;;;;;;5043745;28;20162;-76
2022/11/16 02:37:52;;;;;;;13.95;7.47;;;11.70;85.50;;;;;;5053434;28;20055;-76
2022/11/16 02:40:23;;;;;;;12.07;6.80;;;11.70;85.60;;;;;;5035825;28;20525;-76
2022/11/16 02:42:54;;;;;;;15.82;7.45;;;11.70;85.50;;;;;;5036338;28;20255;-76
2022/11/16 02:45:27;;;;;;;14.93;7.30;;;11.70;85.60;;;;;;5035961;28;20041;-76
2022/11/16 02:47:59;;;;;;;14.50;7.10;;;11.70;85.60;;;;;;5016324;28;20053;-76
2022/11/16 02:50:27;;;;;;;13.80;7.10;;;11.70;85.60;;;;;;5018691;28;20498;-76
2022/11/16 02:52:55;;;;;;;16.10;8.10;;;11.70;85.80;;;;;;5053029;28;20052;-77
2022/11/16 02:55:28;;;;;;;15.73;7.60;;;11.70;86.00;;;;;;5036763;28;20248;-76
2022/11/16 02:57:58;;;;;;;14.60;7.50;;;11.70;85.90;;;;;;5036593;28;20063;-77
2022/11/16 03:00:32;;;;;;;16.55;7.28;;;11.70;85.90;;;;;;5034364;28;20049;-76
2022/11/16 03:03:11;;;;;;;18.42;8.88;;;11.70;85.90;;;;;;5053047;28;20041;-76
2022/11/16 03:05:44;;;;;;;18.87;9.03;;;11.70;85.80;;;;;;5036261;28;20049;-76
2022/11/16 03:08:18;;;;;;;26.45;11.95;;;11.70;86.00;;;;;;5032997;28;20315;-76
2022/11/16 03:13:37;;;;;;;28.08;13.82;;;11.70;86.00;;;;;;5035646;28;20096;-77
2022/11/16 03:16:11;;;;;;;30.90;14.70;;;11.70;86.20;;;;;;5035338;28;20056;-77
2022/11/16 03:18:40;;;;;;;35.03;15.87;;;11.70;86.10;;;;;;5048548;28;20053;-76
2022/11/16 03:21:15;;;;;;;31.83;15.23;;;11.70;86.00;;;;;;5015954;28;20257;-77
2022/11/16 03:23:45;;;;;;;38.22;16.73;;;11.70;86.10;;;;;;4867083;28;4323036;-76
2022/11/16 03:26:18;;;;;;;30.60;15.73;;;11.70;86.20;;;;;;5047555;28;20045;-76
2022/11/16 03:28:52;;;;;;;24.67;12.68;;;11.70;86.20;;;;;;5049984;28;20115;-76
2022/11/16 03:31:26;;;;;;;27.00;14.82;;;11.70;86.10;;;;;;5017345;28;20057;-76
2022/11/16 03:33:57;;;;;;;25.65;15.30;;;11.70;86.20;;;;;;5036263;28;20504;-76
2022/11/16 03:36:28;;;;;;;16.60;9.40;;;11.70;86.30;;;;;;5052955;28;20045;-76
2022/11/16 03:39:00;;;;;;;12.67;6.70;;;11.70;86.40;;;;;;5036711;28;20479;-76
2022/11/16 03:41:28;;;;;;;10.13;6.20;;;11.70;86.30;;;;;;5036793;28;20052;-76
2022/11/16 03:43:57;;;;;;;10.15;6.07;;;11.70;86.20;;;;;;5029229;28;20507;-76
2022/11/16 03:46:26;;;;;;;8.60;4.97;;;11.70;86.20;;;;;;5036547;28;20049;-76
2022/11/16 03:48:57;;;;;;;9.23;4.95;;;11.70;86.10;;;;;;5036646;28;20049;-76
2022/11/16 03:51:26;;;;;;;8.50;4.27;;;11.70;86.10;;;;;;5016994;28;20068;-76
2022/11/16 03:53:54;;;;;;;7.57;4.00;;;11.70;86.20;;;;;;5049338;28;20056;-76
2022/11/16 03:56:21;;;;;;;8.63;4.70;;;11.70;86.20;;;;;;5036924;28;21051;-76
2022/11/16 03:58:49;;;;;;;7.95;4.60;;;11.70;86.20;;;;;;5036505;28;20049;-76
2022/11/16 04:01:18;;;;;;;7.93;4.35;;;11.70;86.30;;;;;;5027077;28;20052;-76
2022/11/16 04:03:48;;;;;;;8.07;4.37;;;11.70;86.40;;;;;;5049023;28;20103;-76
2022/11/16 04:25:43;;;;;;;7.85;4.80;;;11.70;86.60;;;;;;5032307;28;20041;-77
2022/11/16 04:28:19;;;;;;;7.50;4.63;;;11.70;86.50;;;;;;5054548;28;20053;-76
2022/11/16 04:39:15;;;;;;;7.20;4.75;;;11.70;86.60;;;;;;5049118;28;20042;-76
2022/11/16 04:47:14;;;;;;;8.20;4.90;;;11.60;86.80;;;;;;5033229;28;20045;-76
2022/11/16 04:49:42;;;;;;;7.50;4.45;;;11.60;86.70;;;;;;5035540;28;20766;-76
2022/11/16 04:52:10;;;;;;;7.97;4.80;;;11.60;86.50;;;;;;5035330;28;20045;-76
2022/11/16 04:54:38;;;;;;;8.48;4.75;;;11.60;86.60;;;;;;5031521;28;20045;-76
2022/11/16 04:57:06;;;;;;;9.57;4.70;;;11.60;86.70;;;;;;5026514;28;20053;-76
2022/11/16 04:59:34;;;;;;;7.95;4.80;;;11.60;86.70;;;;;;5031955;28;20526;-76
2022/11/16 05:02:09;;;;;;;7.88;5.13;;;11.60;86.70;;;;;;5046131;28;20052;-76
2022/11/16 05:04:53;;;;;;;8.45;4.93;;;11.50;86.90;;;;;;5031119;28;20046;-76
2022/11/16 05:07:22;;;;;;;7.93;4.57;;;11.50;87.00;;;;;;5015825;28;20088;-76
2022/11/16 05:09:51;;;;;;;7.20;4.70;;;11.50;87.00;;;;;;5045995;28;20494;-77
2022/11/16 05:12:20;;;;;;;9.90;6.00;;;11.50;87.00;;;;;;5022366;28;20056;-76
2022/11/16 05:14:51;;;;;;;8.70;4.70;;;11.50;86.80;;;;;;5046068;28;20044;-76
2022/11/16 05:17:19;;;;;;;8.18;5.25;;;11.50;86.80;;;;;;5035379;28;20051;-76
2022/11/16 05:22:39;;;;;;;8.73;5.43;;;11.50;86.90;;;;;;5046092;28;20061;-76
2022/11/16 05:25:08;;;;;;;8.68;5.43;;;11.50;87.00;;;;;;5031031;28;21037;-76
2022/11/16 05:27:36;;;;;;;9.00;5.43;;;11.50;87.10;;;;;;5035668;28;20073;-76
2022/11/16 05:30:04;;;;;;;9.38;5.60;;;11.50;87.10;;;;;;5035193;28;20045;-76
2022/11/16 05:32:31;;;;;;;8.13;4.93;;;11.50;87.00;;;;;;5054549;23;20614;-76
2022/11/16 05:35:00;;;;;;;9.23;5.30;;;11.50;87.10;;;;;;5042115;28;20133;-76
2022/11/16 05:37:29;;;;;;;8.82;5.68;;;11.50;87.10;;;;;;5032624;28;20469;-76
2022/11/16 05:39:58;;;;;;;9.02;5.85;;;11.50;87.10;;;;;;5035319;28;20930;-76
2022/11/16 05:42:36;;;;;;;8.95;5.50;;;11.50;87.20;;;;;;5035538;28;20050;-76
2022/11/16 05:45:04;;;;;;;8.10;5.60;;;11.50;87.10;;;;;;5047110;28;20080;-76
2022/11/16 05:47:32;;;;;;;8.63;5.33;;;11.50;87.10;;;;;;5072320;28;20049;-76
2022/11/16 05:50:00;;;;;;;9.05;5.60;;;11.50;87.10;;;;;;5068412;28;20089;-76
2022/11/16 05:52:31;;;;;;;8.13;5.30;;;11.50;87.10;;;;;;5051777;28;20185;-76
2022/11/16 05:55:06;;;;;;;10.20;5.90;;;11.50;87.20;;;;;;5063338;28;20064;-76
2022/11/16 05:57:39;;;;;;;8.45;5.68;;;11.50;87.10;;;;;;5052879;28;20079;-76
2022/11/16 06:00:08;;;;;;;9.43;6.53;;;11.50;86.90;;;;;;5054804;28;20037;-76
2022/11/16 06:02:42;;;;;;;9.88;6.05;;;11.50;86.90;;;;;;5071530;28;20643;-76
2022/11/16 06:05:17;;;;;;;9.70;6.28;;;11.50;86.90;;;;;;5071963;28;20049;-76
2022/11/16 06:07:44;;;;;;;8.75;5.68;;;11.60;87.00;;;;;;5071708;28;20052;-76
2022/11/16 06:10:13;;;;;;;9.35;6.10;;;11.60;87.10;;;;;;5053942;28;20049;-76
2022/11/16 06:12:43;;;;;;;9.17;6.07;;;11.60;87.00;;;;;;5068268;28;20144;-76
2022/11/16 06:15:11;;;;;;;9.65;6.03;;;11.60;86.90;;;;;;5068092;28;20053;-76
2022/11/16 06:17:38;;;;;;;9.32;5.78;;;11.60;87.00;;;;;;5053354;28;20045;-76
2022/11/16 06:20:06;;;;;;;9.85;5.68;;;11.60;87.00;;;;;;5053389;28;20045;-76
2022/11/16 06:22:33;;;;;;;8.52;5.13;;;11.60;87.00;;;;;;5053737;28;20438;-76
2022/11/16 06:25:00;;;;;;;9.10;5.53;;;11.60;87.10;;;;;;5052218;28;20084;-76
2022/11/16 06:27:29;;;;;;;8.13;5.28;;;11.60;87.10;;;;;;5050384;28;20049;-76
2022/11/16 06:29:56;;;;;;;8.82;5.00;;;11.50;87.10;;;;;;5051566;28;20045;-76
2022/11/16 06:32:23;;;;;;;7.80;4.75;;;11.60;87.10;;;;;;5070594;28;20056;-76
2022/11/16 06:34:50;;;;;;;7.85;4.43;;;11.50;87.20;;;;;;5049640;28;20968;-76
2022/11/16 06:37:18;;;;;;;8.23;5.10;;;11.50;87.20;;;;;;5051347;28;20045;-76
2022/11/16 06:39:45;;;;;;;7.28;4.68;;;11.50;87.20;;;;;;5052022;28;20534;-76
2022/11/16 06:42:13;;;;;;;8.27;5.03;;;11.50;87.30;;;;;;5049685;28;20054;-76
2022/11/16 06:44:42;;;;;;;6.47;4.30;;;11.60;87.30;;;;;;5052321;28;20049;-76
2022/11/16 06:47:13;;;;;;;7.32;4.70;;;11.50;87.50;;;;;;5053108;28;20049;-76
2022/11/16 06:49:41;;;;;;;6.90;4.27;;;11.60;87.60;;;;;;5050200;28;20592;-76
2022/11/16 06:52:15;;;;;;;7.50;4.95;;;11.60;87.60;;;;;;5066825;28;20148;-76
2022/11/16 06:54:42;;;;;;;7.75;4.65;;;11.60;87.70;;;;;;5051313;28;20055;-76
2022/11/16 06:57:09;;;;;;;7.68;4.90;;;11.50;87.70;;;;;;5059150;22;20084;-76
2022/11/16 06:59:37;;;;;;;7.05;4.70;;;11.50;87.70;;;;;;5008334;28;20125;-76
2022/11/16 07:02:06;;;;;;;7.60;4.77;;;11.50;87.80;;;;;;5021425;28;20058;-76
2022/11/16 07:04:36;;;;;;;8.55;5.60;;;11.50;87.80;;;;;;5018544;28;20431;-76
2022/11/16 07:07:04;;;;;;;9.40;5.35;;;11.60;87.80;;;;;;5003160;28;20046;-76
2022/11/16 07:09:33;;;;;;;9.00;5.50;;;11.60;87.80;;;;;;5015361;28;20059;-76
2022/11/16 07:12:00;;;;;;;8.80;5.22;;;11.60;87.90;;;;;;5025616;28;20046;-76
2022/11/16 07:14:33;;;;;;;8.10;5.37;;;11.60;87.80;;;;;;5029783;28;20209;-76
2022/11/16 07:17:02;;;;;;;8.27;4.97;;;11.60;87.80;;;;;;5013430;28;20074;-76
2022/11/16 07:19:30;;;;;;;9.45;5.20;;;11.60;87.70;;;;;;5012909;28;20050;-76
2022/11/16 07:21:59;;;;;;;8.18;5.20;;;11.60;87.70;;;;;;5001324;28;20050;-76
2022/11/16 07:24:27;;;;;;;8.10;5.30;;;11.60;87.80;;;;;;5029360;28;20104;-76
2022/11/16 07:26:53;;;;;;;8.20;5.13;;;11.60;87.70;;;;;;5029641;28;20054;-76
2022/11/16 07:29:24;;;;;;;9.82;5.35;;;11.60;87.70;;;;;;5029254;28;20597;-76
2022/11/16 07:32:20;;;;;;;8.52;5.38;;;11.60;87.70;;;;;;4955595;28;20275;-75
2022/11/16 07:35:14;;;;;;;7.88;5.00;;;11.60;87.70;;;;;;5017094;28;20054;-76
2022/11/16 07:37:42;;;;;;;9.50;5.95;;;11.70;87.70;;;;;;5012596;28;20108;-76
2022/11/16 07:40:11;;;;;;;10.00;5.63;;;11.60;87.60;;;;;;5004595;28;20465;-76
2022/11/16 07:42:39;;;;;;;9.63;5.22;;;11.70;87.60;;;;;;5017175;28;20053;-76
2022/11/16 07:45:24;;;;;;;10.35;5.60;;;11.60;87.60;;;;;;5028551;28;20474;-75
2022/11/16 07:47:57;;;;;;;9.35;5.40;;;11.70;87.60;;;;;;5010817;28;20547;-75
2022/11/16 07:50:44;;;;;;;8.27;5.15;;;11.70;87.60;;;;;;5023640;28;20124;-76
2022/11/16 07:53:11;;;;;;;8.43;5.17;;;11.70;87.50;;;;;;5011056;28;20054;-76
2022/11/16 07:55:39;;;;;;;7.78;5.28;;;11.70;87.40;;;;;;5027442;28;20050;-77
2022/11/16 07:58:06;;;;;;;8.65;5.40;;;11.70;87.40;;;;;;5023458;28;20140;-76
2022/11/16 08:00:34;;;;;;;7.40;4.78;;;11.70;87.40;;;;;;5007950;28;20057;-76
2022/11/16 08:03:09;;;;;;;8.75;5.20;;;11.70;87.40;;;;;;5010532;28;20527;-76
2022/11/16 08:05:37;;;;;;;7.47;4.53;;;11.60;87.40;;;;;;5004591;28;20046;-76
2022/11/16 08:08:06;;;;;;;8.60;4.40;;;11.60;87.30;;;;;;5018766;28;20109;-76
2022/11/16 08:10:35;;;;;;;8.13;4.75;;;11.60;87.40;;;;;;5017429;28;20153;-76
2022/11/16 08:13:04;;;;;;;9.00;5.00;;;11.50;87.40;;;;;;5003973;28;20077;-76
2022/11/16 08:15:31;;;;;;;8.10;4.78;;;11.50;87.40;;;;;;5004432;28;20050;-76
2022/11/16 08:18:01;;;;;;;6.87;4.07;;;11.50;87.40;;;;;;5002952;28;20096;-76
2022/11/16 08:20:30;;;;;;;7.22;4.30;;;11.50;87.30;;;;;;5003962;28;20054;-76
2022/11/16 08:23:00;;;;;;;7.65;4.50;;;11.50;87.30;;;;;;5012711;28;20132;-76
2022/11/16 08:25:29;;;;;;;7.63;4.10;;;11.50;87.30;;;;;;5012661;28;20065;-76
2022/11/16 08:27:57;;;;;;;7.53;4.20;;;11.50;87.30;;;;;;5026845;28;20795;-76
2022/11/16 08:30:26;;;;;;;7.50;4.30;;;11.50;87.30;;;;;;5028612;28;20046;-76
2022/11/16 08:32:53;;;;;;;6.35;4.07;;;11.50;87.30;;;;;;5028742;28;20136;-76
2022/11/16 08:35:22;;;;;;;6.35;3.90;;;11.50;87.30;;;;;;5020020;28;20114;-76
2022/11/16 08:37:49;;;;;;;6.20;3.67;;;11.60;87.20;;;;;;5022404;28;20092;-76
2022/11/16 08:40:16;;;;;;;5.88;3.75;;;11.60;87.10;;;;;;5018294;28;20050;-76
2022/11/16 08:42:45;;;;;;;6.13;3.60;;;11.60;87.20;;;;;;5025617;28;20531;-76
2022/11/16 08:45:13;;;;;;;6.60;3.78;;;11.60;87.20;;;;;;5007351;28;20470;-76
2022/11/16 08:47:41;;;;;;;6.07;3.63;;;11.60;87.20;;;;;;5006735;28;20077;-76
2022/11/16 08:50:09;;;;;;;6.05;3.60;;;11.60;87.20;;;;;;5007214;28;20053;-76
2022/11/16 08:52:36;;;;;;;6.90;4.15;;;11.60;87.20;;;;;;5007695;28;20054;-76
2022/11/16 08:55:06;;;;;;;5.80;3.43;;;11.60;87.20;;;;;;5024810;28;20050;-76
2022/11/16 08:57:33;;;;;;;6.93;3.45;;;11.60;87.30;;;;;;5010715;28;20135;-76
2022/11/16 09:00:08;;;;;;;5.15;3.20;;;11.60;87.30;;;;;;5012081;28;20042;-75
2022/11/16 09:02:35;;;;;;;6.90;3.65;;;11.60;87.30;;;;;;5027919;28;20052;-76
2022/11/16 09:05:02;;;;;;;5.93;3.40;;;11.60;87.40;;;;;;5021938;28;20050;-75
2022/11/16 09:07:29;;;;;;;5.63;3.83;;;11.60;87.50;;;;;;5027831;28;20056;-77
2022/11/16 09:10:02;;;;;;;6.47;3.92;;;11.60;87.50;;;;;;5028824;28;20509;-78
2022/11/16 09:12:29;;;;;;;6.75;4.20;;;11.60;87.60;;;;;;5020438;28;20049;-77
2022/11/16 09:14:56;;;;;;;6.80;4.40;;;11.60;87.60;;;;;;5025034;28;20504;-76
2022/11/16 09:17:24;;;;;;;7.15;4.70;;;11.60;87.60;;;;;;5021707;28;20046;-77
2022/11/16 09:19:52;;;;;;;8.10;5.33;;;11.60;87.70;;;;;;5023051;28;20062;-78
2022/11/16 09:22:19;;;;;;;7.97;5.20;;;11.60;87.60;;;;;;5017508;28;20518;-76
2022/11/16 09:24:46;;;;;;;7.97;5.07;;;11.70;87.80;;;;;;5024910;28;20134;-76
2022/11/16 09:27:13;;;;;;;8.52;5.10;;;11.70;87.90;;;;;;5027027;28;20495;-77
2022/11/16 09:29:40;;;;;;;8.73;5.18;;;11.70;87.90;;;;;;5031653;28;20587;-77
2022/11/16 09:32:07;;;;;;;10.60;6.23;;;11.70;87.90;;;;;;5028549;28;20050;-77
2022/11/16 09:34:36;;;;;;;10.77;6.45;;;11.70;88.00;;;;;;5028901;28;20200;-77
2022/11/16 09:37:03;;;;;;;13.25;7.30;;;11.70;88.10;;;;;;5025621;28;20049;-76
2022/11/16 09:39:31;;;;;;;11.90;6.78;;;11.80;88.20;;;;;;5024226;28;20241;-77
2022/11/16 09:42:21;;;;;;;13.50;7.03;;;11.80;88.30;;;;;;5027635;28;20132;-77
2022/11/16 09:45:15;;;;;;;13.70;7.77;;;11.80;88.10;;;;;;5017488;28;20050;-77
2022/11/16 09:47:48;;;;;;;14.63;7.60;;;11.90;88.10;;;;;;5021042;28;20061;-77
2022/11/16 09:50:42;;;;;;;13.82;7.32;;;11.90;87.90;;;;;;5018133;28;20047;-77
2022/11/16 09:53:22;;;;;;;16.98;9.05;;;11.90;87.90;;;;;;5015094;28;20053;-77
2022/11/16 09:55:52;;;;;;;14.30;7.97;;;11.90;87.80;;;;;;5013792;28;20056;-76
2022/11/16 09:58:24;;;;;;;15.43;7.53;;;11.90;87.70;;;;;;5025754;28;20053;-77
2022/11/16 10:00:59;;;;;;;14.43;7.88;;;11.90;87.50;;;;;;5020555;28;20054;-77
2022/11/16 10:03:27;;;;;;;17.10;9.63;;;11.90;87.50;;;;;;5016825;28;20042;-77
2022/11/16 10:06:02;;;;;;;13.52;7.78;;;11.90;87.40;;;;;;5022660;28;20548;-77
2022/11/16 10:08:42;;;;;;;14.70;7.55;;;11.90;87.30;;;;;;5025680;28;20136;-77
2022/11/16 10:11:45;;;;;;;13.83;8.23;;;11.90;87.40;;;;;;5006207;28;20039;-77
2022/11/16 10:14:31;;;;;;;15.30;7.63;;;11.90;87.20;;;;;;5007029;28;20057;-77
2022/11/16 10:17:06;;;;;;;12.90;6.93;;;11.90;86.90;;;;;;5013214;28;20060;-77
2022/11/16 10:19:42;;;;;;;11.05;6.28;;;12.00;86.30;;;;;;5024139;28;20054;-77
2022/11/16 10:22:22;;;;;;;12.95;6.75;;;12.00;86.00;;;;;;5026423;28;20050;-77
2022/11/16 10:24:56;;;;;;;11.50;6.90;;;11.90;85.90;;;;;;5020836;28;20711;-77
2022/11/16 10:27:46;;;;;;;14.25;7.05;;;11.90;85.80;;;;;;5025620;28;20042;-77
2022/11/16 10:30:16;;;;;;;10.10;6.40;;;11.90;85.80;;;;;;5023989;28;20486;-77
2022/11/16 10:32:49;;;;;;;12.13;5.80;;;12.00;85.80;;;;;;5030979;28;20558;-77
2022/11/16 10:35:19;;;;;;;10.68;6.13;;;12.00;85.30;;;;;;5019935;28;20056;-77
2022/11/16 10:37:49;;;;;;;11.33;5.63;;;12.00;85.00;;;;;;5015245;28;20086;-78
2022/11/16 10:40:20;;;;;;;9.98;5.47;;;12.00;84.80;;;;;;5019321;28;20104;-77
2022/11/16 10:42:54;;;;;;;9.82;5.55;;;12.00;84.70;;;;;;5016639;28;20137;-78
2022/11/16 10:45:28;;;;;;;9.13;5.57;;;12.00;84.60;;;;;;5026742;28;20116;-77
2022/11/16 10:48:00;;;;;;;11.98;5.78;;;12.00;84.40;;;;;;5029401;28;20137;-77
2022/11/16 10:50:34;;;;;;;11.67;5.10;;;12.00;84.20;;;;;;5027249;28;20050;-77
2022/11/16 10:53:03;;;;;;;7.82;4.32;;;12.10;84.00;;;;;;5017397;28;20087;-77
2022/11/16 10:55:30;;;;;;;8.80;3.95;;;12.10;83.80;;;;;;5033284;28;20572;-79
2022/11/16 10:57:59;;;;;;;6.88;3.10;;;12.10;84.00;;;;;;5023479;28;20050;-78
2022/11/16 11:00:43;;;;;;;8.43;3.47;;;12.10;83.70;;;;;;5045646;28;20105;-77
2022/11/16 11:03:10;;;;;;;9.40;3.47;;;12.10;83.40;;;;;;5024479;28;20046;-77
2022/11/16 11:05:48;;;;;;;7.68;2.95;;;12.20;83.00;;;;;;5030592;28;20052;-78
2022/11/16 11:08:26;;;;;;;7.13;2.85;;;12.20;82.60;;;;;;5031773;28;20061;-75
2022/11/16 11:12:36;;;;;;;7.20;3.40;;;12.20;82.00;;;;;;5030596;28;20053;-75
2022/11/16 11:14:03;;;;;;;7.32;2.97;;;12.30;82.30;;;;;;5009777;28;20061;-78
2022/11/16 11:16:30;;;;;;;5.60;2.90;;;12.30;82.20;;;;;;5015213;28;20056;-78
2022/11/16 11:19:16;;;;;;;7.22;2.78;;;12.40;82.20;;;;;;5029609;28;20950;-76
2022/11/16 11:21:43;;;;;;;8.93;3.40;;;12.50;81.70;;;;;;5031186;28;20049;-75
2022/11/16 11:24:17;;;;;;;9.30;3.17;;;12.50;81.80;;;;;;5029628;28;20842;-75
2022/11/16 11:26:52;;;;;;;6.60;2.80;;;12.50;81.50;;;;;;5029151;28;20046;-77
2022/11/16 11:29:24;;;;;;;6.13;3.27;;;12.50;81.60;;;;;;5030047;28;20523;-77
2022/11/16 11:31:53;;;;;;;7.65;2.92;;;12.50;81.50;;;;;;5014267;28;20065;-79
2022/11/16 11:34:23;;;;;;;7.70;2.95;;;12.60;81.10;;;;;;5023946;28;20117;-78
2022/11/16 11:36:55;;;;;;;7.45;2.30;;;12.70;80.90;;;;;;5027002;28;20161;-79
2022/11/16 11:39:35;;;;;;;10.07;3.00;;;12.70;80.70;;;;;;5019898;28;20058;-78
2022/11/16 11:42:20;;;;;;;7.77;2.20;;;12.80;80.50;;;;;;5012051;28;20058;-77
2022/11/16 11:44:53;;;;;;;7.07;2.30;;;12.80;79.70;;;;;;5008927;28;20043;-78
2022/11/16 11:47:30;;;;;;;6.38;2.60;;;12.90;79.00;;;;;;5029557;28;20136;-78
2022/11/16 11:50:05;;;;;;;7.28;2.80;;;12.90;79.00;;;;;;5026454;28;20423;-78
2022/11/16 11:52:37;;;;;;;7.25;2.70;;;12.90;79.00;;;;;;5028497;28;20053;-78
2022/11/16 11:55:08;;;;;;;8.10;2.10;;;12.90;79.10;;;;;;5008728;28;20046;-78
2022/11/16 11:57:42;;;;;;;6.22;1.83;;;12.90;79.20;;;;;;5014159;28;20046;-77
2022/11/16 12:00:14;;;;;;;6.65;2.33;;;13.00;79.10;;;;;;5026299;28;20149;-78
2022/11/16 12:03:01;;;;;;;9.65;2.47;;;13.00;78.70;;;;;;5029319;28;20056;-78
2022/11/16 12:05:44;;;;;;;8.95;2.70;;;13.00;78.70;;;;;;5030355;28;20464;-80
2022/11/16 12:08:25;;;;;;;9.87;2.60;;;13.10;78.70;;;;;;5012407;28;20054;-80
2022/11/16 12:11:00;;;;;;;8.60;2.40;;;13.10;78.40;;;;;;5028079;28;20050;-79
2022/11/16 12:13:49;;;;;;;6.63;2.40;;;13.10;78.30;;;;;;5028535;28;20060;-79
2022/11/16 12:16:25;;;;;;;7.50;1.45;;;13.10;76.10;;;;;;5023223;28;20161;-79
2022/11/16 12:19:14;;;;;;;8.70;2.10;;;13.10;75.10;;;;;;5028970;28;20054;-80
2022/11/16 12:21:55;;;;;;;8.33;1.97;;;13.10;74.60;;;;;;5030027;28;20054;-81
2022/11/16 12:24:47;;;;;;;7.35;1.40;;;13.10;74.70;;;;;;5030062;28;20064;-82
2022/11/16 12:27:29;;;;;;;5.95;1.50;;;13.10;75.40;;;;;;5030435;28;20169;-80
2022/11/16 12:30:02;;;;;;;7.93;1.63;;;13.10;75.70;;;;;;5029396;28;20053;-79
2022/11/16 12:32:49;;;;;;;6.70;1.85;;;13.10;75.50;;;;;;5012923;28;20066;-78
2022/11/16 12:35:33;;;;;;;9.07;1.63;;;13.10;75.20;;;;;;5024345;28;20081;-77
2022/11/16 12:38:15;;;;;;;7.95;1.70;;;13.10;75.30;;;;;;5030649;28;20050;-77
2022/11/16 12:40:58;;;;;;;8.68;1.58;;;13.10;75.30;;;;;;5030880;28;20053;-77
2022/11/16 12:43:36;;;;;;;8.77;1.83;;;13.10;75.40;;;;;;5029362;28;20575;-77
2022/11/16 12:46:11;;;;;;;9.25;1.80;;;13.10;75.70;;;;;;5027113;28;20149;-77
2022/11/16 12:48:56;;;;;;;7.93;1.90;;;13.10;76.00;;;;;;5029009;28;20770;-77
2022/11/16 12:51:37;;;;;;;7.78;1.67;;;13.20;76.20;;;;;;5030046;28;20053;-76
2022/11/16 12:54:26;;;;;;;5.72;1.58;;;13.30;76.40;;;;;;5017539;28;20050;-77
2022/11/16 12:57:02;;;;;;;6.55;1.63;;;13.30;76.40;;;;;;5009345;28;20054;-77
2022/11/16 12:59:55;;;;;;;7.18;1.70;;;13.50;76.40;;;;;;5012969;28;20050;-78
2022/11/16 13:02:33;;;;;;;6.23;1.53;;;13.50;76.50;;;;;;5028117;28;20224;-77
2022/11/16 13:05:04;;;;;;;11.00;1.85;;;13.60;76.20;;;;;;5007565;28;20055;-77
2022/11/16 13:07:36;;;;;;;5.18;1.65;;;13.60;75.90;;;;;;5008037;28;20126;-78
2022/11/16 13:10:33;;;;;;;7.57;1.90;;;13.70;75.80;;;;;;5027740;28;20108;-78
2022/11/16 13:13:04;;;;;;;8.95;2.13;;;13.80;75.70;;;;;;5013040;28;20060;-78
2022/11/16 13:15:38;;;;;;;6.90;1.80;;;13.90;75.30;;;;;;5028775;28;20076;-78
2022/11/16 13:18:11;;;;;;;5.95;1.27;;;13.90;74.90;;;;;;5011838;28;20070;-77
2022/11/16 13:20:45;;;;;;;9.27;2.05;;;13.90;74.50;;;;;;5011966;28;20157;-78
2022/11/16 13:23:20;;;;;;;7.63;1.35;;;13.90;74.30;;;;;;5024425;28;21043;-78
2022/11/16 13:25:52;;;;;;;8.25;1.80;;;13.90;74.10;;;;;;5008927;28;20109;-78
2022/11/16 13:28:26;;;;;;;7.63;1.40;;;13.90;73.60;;;;;;5025266;28;20057;-78
2022/11/16 13:31:03;;;;;;;8.95;1.60;;;13.90;73.30;;;;;;5029455;28;20121;-78
2022/11/16 13:33:39;;;;;;;5.00;1.40;;;13.90;72.60;;;;;;5010579;28;20136;-78
2022/11/16 13:36:42;;;;;;;9.57;1.40;;;13.90;72.60;;;;;;5028560;28;20056;-78
2022/11/16 13:39:10;;;;;;;6.55;1.65;;;13.80;72.60;;;;;;5028392;28;20046;-79
2022/11/16 13:41:39;;;;;;;7.23;1.33;;;13.80;72.40;;;;;;5010619;28;20061;-78
2022/11/16 13:44:14;;;;;;;7.30;1.63;;;13.70;72.30;;;;;;5010399;28;20105;-78
2022/11/16 13:46:45;;;;;;;6.18;1.50;;;13.70;72.80;;;;;;5030189;28;20504;-78
2022/11/16 13:49:29;;;;;;;8.52;1.40;;;13.60;73.00;;;;;;5028446;28;20042;-78
2022/11/16 13:51:59;;;;;;;9.68;1.58;;;13.60;73.20;;;;;;5027772;28;20056;-80
2022/11/16 13:54:32;;;;;;;9.03;1.37;;;13.60;73.50;;;;;;5024907;28;20764;-80